PIMOHWEATHER Historical Data
 
Daily Summary for October 21, 2018 Units:  Metric    English   Both
« Previous Day
Next Day »
Daily Weekly Monthly Yearly Custom
  Current: High: Low: Average:
Temperature: 30.7 °C 33.7 °C 25.8 °C 28.1 °C
Dew Point: 24.1 °C 24.1 °C 22.7 °C 23.4 °C
Humidity: 68% 86% 54% 76%
Wind Speed: 166.6km/h 166.6km/h 9.3km/h 157.4km/h
Wind Gust: 1.4km/h 9.3km/h - -
WindWSW - - WSW
Pressure: 1011.7 hPa 1012.8 hPa 1011.1 hPa -
Precipitation: 0 mm      
Historical Graphs
 
 
Tabular Data for October 21, 2018
Time Temp. Dew Point Pressure Wind Wind Speed Wind Gust Humidity Rain Rate (Hourly) Solar Radiation Conditions
00:04 26.3 °C 23 °C 1012.8 hPa WSW 166.6 km/h   82% 6451015.8 mm 0.00 W/m2 CLR
00:09 26.2 °C 23.1 °C 1012.8 hPa WSW 166.6 km/h 2.9 km/h 83% 6451015.8 mm 0.00 W/m2 CLR
00:14 26.3 °C 23 °C 1012.8 hPa WSW 166.6 km/h   82% 6451015.8 mm 0.00 W/m2 CLR
00:19 26.2 °C 23.1 °C 1012.8 hPa WSW 166.6 km/h 2.9 km/h 83% 6451015.8 mm 0.00 W/m2 CLR
00:24 26.2 °C 23.1 °C 1012.8 hPa WSW 166.6 km/h 2.9 km/h 83% 6451015.8 mm 0.00 W/m2 CLR
00:29 26.2 °C 23.1 °C 1012.8 hPa WSW 166.6 km/h 2.9 km/h 83% 6451015.8 mm 0.00 W/m2 CLR
00:34 26.3 °C 23 °C 1012.8 hPa WSW 166.6 km/h   82% 6451015.8 mm 0.00 W/m2 CLR
00:39 26.6 °C 24.1 °C 1012.8 hPa WSW 166.6 km/h   86% 6451015.8 mm 0.00 W/m2 CLR
00:44 26.6 °C 24.1 °C 1012.8 hPa WSW 166.6 km/h   86% 6451015.8 mm 0.00 W/m2 CLR
00:49 26.6 °C 24.1 °C 1012.8 hPa WSW 166.6 km/h   86% 6451015.8 mm 0.00 W/m2 CLR
00:54 26.6 °C 24.1 °C 1012.8 hPa WSW 166.6 km/h   86% 6451015.8 mm 0.00 W/m2 CLR
00:59 26.6 °C 24.1 °C 1012.8 hPa WSW 166.6 km/h   86% 6451015.8 mm 0.00 W/m2 CLR
01:04 26.6 °C 24.1 °C 1012.8 hPa WSW 166.6 km/h   86% 6451015.8 mm 0.00 W/m2 CLR
01:09 26.6 °C 24.1 °C 1012.8 hPa WSW 166.6 km/h   86% 6451015.8 mm 0.00 W/m2 CLR
01:14 26.6 °C 24.1 °C 1012.8 hPa WSW 166.6 km/h   86% 6451015.8 mm 0.00 W/m2 CLR
01:19 26.6 °C 24.1 °C 1012.8 hPa WSW 166.6 km/h   86% 6451015.8 mm 0.00 W/m2 CLR
01:24 26.6 °C 24.1 °C 1012.8 hPa WSW 166.6 km/h   86% 6451015.8 mm 0.00 W/m2 CLR
01:29 26.6 °C 24.1 °C 1012.8 hPa WSW 166.6 km/h   86% 6451015.8 mm 0.00 W/m2 CLR
01:34 26.6 °C 24.1 °C 1012.8 hPa WSW 166.6 km/h   86% 6451015.8 mm 0.00 W/m2 CLR
01:44 26.8 °C 23.1 °C 1012.8 hPa WSW 166.6 km/h   80% 6451015.8 mm 0.00 W/m2 CLR
01:49 26.8 °C 23.1 °C 1012.8 hPa WSW 166.6 km/h   80% 6451015.8 mm 0.00 W/m2 CLR
01:54 26.8 °C 23.1 °C 1012.8 hPa WSW 166.6 km/h   80% 6451015.8 mm 0.00 W/m2 CLR
01:59 26.8 °C 23.1 °C 1012.8 hPa WSW 166.6 km/h   80% 6451015.8 mm 0.00 W/m2 CLR
02:04 26.9 °C 22.9 °C 1011.7 hPa WSW 166.6 km/h 6.4 km/h 79% 6451015.8 mm 0.00 W/m2 CLR
02:09 26.9 °C 22.9 °C 1011.7 hPa WSW 166.6 km/h 6.4 km/h 79% 6451015.8 mm 0.00 W/m2 CLR
02:14 26.9 °C 22.9 °C 1011.7 hPa WSW 166.6 km/h 6.4 km/h 79% 6451015.8 mm 0.00 W/m2 CLR
02:19 26.9 °C 22.9 °C 1011.7 hPa WSW 166.6 km/h 6.4 km/h 79% 6451015.8 mm 0.00 W/m2 CLR
02:24 26.9 °C 22.9 °C 1011.7 hPa WSW 166.6 km/h 6.4 km/h 79% 6451015.8 mm 0.00 W/m2 CLR
02:29 26.9 °C 22.9 °C 1011.7 hPa WSW 166.6 km/h 6.4 km/h 79% 6451015.8 mm 0.00 W/m2 CLR
02:34 26.9 °C 22.9 °C 1011.7 hPa WSW 166.6 km/h 6.4 km/h 79% 6451015.8 mm 0.00 W/m2 CLR
02:39 26.9 °C 22.9 °C 1011.7 hPa WSW 166.6 km/h 6.4 km/h 79% 6451015.8 mm 0.00 W/m2 CLR
02:44 26.9 °C 22.9 °C 1011.7 hPa WSW 166.6 km/h 6.4 km/h 79% 6451015.8 mm 0.00 W/m2 CLR
02:49 26.9 °C 22.9 °C 1011.7 hPa WSW 166.6 km/h 6.4 km/h 79% 6451015.8 mm 0.00 W/m2 CLR
02:54 27.3 °C 22.9 °C 1011.7 hPa WSW 166.6 km/h   77% 6451015.8 mm 0.00 W/m2 CLR
02:59 27.3 °C 22.9 °C 1011.7 hPa WSW 166.6 km/h   77% 6451015.8 mm 0.00 W/m2 CLR
03:04 27.3 °C 22.9 °C 1011.7 hPa WSW 166.6 km/h   77% 6451015.8 mm 0.00 W/m2 CLR
03:09 27.2 °C 23.1 °C 1011.1 hPa WSW 166.6 km/h 2.9 km/h 78% 6451015.8 mm 0.00 W/m2 CLR
03:14 27.2 °C 23.1 °C 1011.1 hPa WSW 166.6 km/h 4.3 km/h 78% 6451015.8 mm 0.00 W/m2 CLR
03:19 27.2 °C 23.1 °C 1011.1 hPa WSW 166.6 km/h 2.9 km/h 78% 6451015.8 mm 0.00 W/m2 CLR
03:24 27.2 °C 23.1 °C 1011.1 hPa WSW 166.6 km/h 4.3 km/h 78% 6451015.8 mm 0.00 W/m2 CLR
03:29 27.2 °C 23.1 °C 1011.1 hPa WSW 166.6 km/h 4.3 km/h 78% 6451015.8 mm 0.00 W/m2 CLR
03:34 27.2 °C 23.1 °C 1011.1 hPa WSW 166.6 km/h 4.3 km/h 78% 6451015.8 mm 0.00 W/m2 CLR
03:39 27.2 °C 23.1 °C 1011.1 hPa WSW 166.6 km/h 2.9 km/h 78% 6451015.8 mm 0.00 W/m2 CLR
03:44 27.2 °C 23.1 °C 1011.1 hPa WSW 166.6 km/h 4.3 km/h 78% 6451015.8 mm 0.00 W/m2 CLR
03:49 26.7 °C 22.9 °C 1011.7 hPa WSW 166.6 km/h 0.6 km/h 80% 6451015.8 mm 0.00 W/m2 CLR
03:54 26.7 °C 22.9 °C 1011.7 hPa WSW 166.6 km/h 0.6 km/h 80% 6451015.8 mm 0.00 W/m2 CLR
03:59 26.7 °C 22.9 °C 1011.7 hPa WSW 166.6 km/h 0.6 km/h 80% 6451015.8 mm 0.00 W/m2 CLR
04:04 26.6 °C 23.1 °C 1011.7 hPa WSW 166.6 km/h   81% 6451015.8 mm 0.00 W/m2 CLR
04:09 26.6 °C 23.1 °C 1011.7 hPa WSW 166.6 km/h 2.1 km/h 81% 6451015.8 mm 0.00 W/m2 CLR
04:14 26.6 °C 23.1 °C 1011.7 hPa WSW 166.6 km/h 2.1 km/h 81% 6451015.8 mm 0.00 W/m2 CLR
04:19 26.6 °C 23.1 °C 1011.7 hPa WSW 166.6 km/h 2.1 km/h 81% 6451015.8 mm 0.00 W/m2 CLR
04:24 26.6 °C 23.1 °C 1011.7 hPa WSW 166.6 km/h 2.1 km/h 81% 6451015.8 mm 0.00 W/m2 CLR
04:29 26.6 °C 23.1 °C 1011.7 hPa WSW 166.6 km/h 2.1 km/h 81% 6451015.8 mm 0.00 W/m2 CLR
04:32 26.6 °C 23.1 °C 1011.7 hPa WSW 166.6 km/h   81% 6451015.8 mm 0.00 W/m2 CLR
05:14 33.7 °C 23.1 °C 1011.7 hPa West 9.3 km/h 2.6 km/h 54% 0 mm 0.00 W/m2 CLR
05:19 33.7 °C 23.1 °C 1011.7 hPa West 9.3 km/h 2.6 km/h 54% 0 mm 0.00 W/m2 CLR
05:24 33.7 °C 23.1 °C 1011.7 hPa West 9.3 km/h 2.6 km/h 54% 0 mm 678.00 W/m2 CLR
05:29 33.7 °C 23.1 °C 1011.7 hPa West 9.3 km/h 2.6 km/h 54% 0 mm 678.00 W/m2 CLR
05:34 33.7 °C 23.1 °C 1011.7 hPa West 9.3 km/h 2.6 km/h 54% 0 mm 678.00 W/m2 CLR
05:39 33.7 °C 23.1 °C 1011.7 hPa West 9.3 km/h 2.6 km/h 54% 0 mm 678.00 W/m2 CLR
05:42 33.7 °C 23.1 °C 1011.7 hPa West 9.3 km/h 2.6 km/h 54% 0 mm 678.00 W/m2 CLR
09:14 25.8 °C 23.1 °C 1012.8 hPa WSW 166.6 km/h   85% 6451015.8 mm 96.00 W/m2 OVC
09:19 25.8 °C 22.7 °C 1012.8 hPa WSW 166.6 km/h   83% 6451015.8 mm 96.00 W/m2 OVC
09:24 25.8 °C 22.7 °C 1012.8 hPa WSW 166.6 km/h   83% 6451015.8 mm 96.00 W/m2 OVC
09:29 25.8 °C 22.7 °C 1012.8 hPa WSW 166.6 km/h   83% 6451015.8 mm 96.00 W/m2 OVC
09:34 25.8 °C 22.7 °C 1012.8 hPa WSW 166.6 km/h   83% 6451015.8 mm 96.00 W/m2 OVC
09:39 25.8 °C 22.7 °C 1012.8 hPa WSW 166.6 km/h   83% 6451015.8 mm 96.00 W/m2 OVC
09:44 25.8 °C 22.7 °C 1012.8 hPa WSW 166.6 km/h   83% 6451015.8 mm 96.00 W/m2 OVC
09:49 25.8 °C 22.7 °C 1012.8 hPa WSW 166.6 km/h   83% 6451015.8 mm 96.00 W/m2 OVC
09:54 25.8 °C 22.7 °C 1012.8 hPa WSW 166.6 km/h   83% 6451015.8 mm 96.00 W/m2 OVC
09:59 25.8 °C 22.7 °C 1012.8 hPa WSW 166.6 km/h   83% 6451015.8 mm 96.00 W/m2 OVC
10:04 25.8 °C 22.7 °C 1012.8 hPa WSW 166.6 km/h   83% 6451015.8 mm 96.00 W/m2 OVC
10:09 28.4 °C 23.8 °C 1012.8 hPa WSW 166.6 km/h 6.4 km/h 76% 6451015.8 mm 247.00 W/m2 OVC
10:14 28.4 °C 23.8 °C 1012.8 hPa WSW 166.6 km/h 6.4 km/h 76% 6451015.8 mm 247.00 W/m2 OVC
10:19 28.4 °C 23.8 °C 1012.8 hPa WSW 166.6 km/h 6.4 km/h 76% 6451015.8 mm 247.00 W/m2 OVC
10:24 28.4 °C 23.8 °C 1012.8 hPa WSW 166.6 km/h 6.4 km/h 76% 6451015.8 mm 247.00 W/m2 OVC
10:29 28.4 °C 23.8 °C 1012.8 hPa WSW 166.6 km/h 6.4 km/h 76% 6451015.8 mm 247.00 W/m2 OVC
10:34 28.4 °C 23.8 °C 1012.8 hPa WSW 166.6 km/h 6.4 km/h 76% 6451015.8 mm 247.00 W/m2 OVC
10:39 28.4 °C 23.8 °C 1012.8 hPa WSW 166.6 km/h 6.4 km/h 76% 6451015.8 mm 247.00 W/m2 OVC
10:44 28.5 °C 24.1 °C 1012.8 hPa WSW 166.6 km/h 5.5 km/h 77% 6451015.8 mm 233.00 W/m2 OVC
10:49 28.5 °C 24.1 °C 1012.8 hPa WSW 166.6 km/h 4.3 km/h 77% 6451015.8 mm 236.00 W/m2 OVC
10:54 28.5 °C 24.1 °C 1012.8 hPa WSW 166.6 km/h 5.5 km/h 77% 6451015.8 mm 233.00 W/m2 OVC
10:59 28.6 °C 23.9 °C 1012.8 hPa WSW 166.6 km/h 4 km/h 76% 6451015.8 mm 298.00 W/m2 OVC
11:04 28.6 °C 23.9 °C 1012.8 hPa WSW 166.6 km/h 4 km/h 76% 6451015.8 mm 298.00 W/m2 OVC
11:09 28.6 °C 23.9 °C 1012.8 hPa WSW 166.6 km/h 4 km/h 76% 6451015.8 mm 298.00 W/m2 OVC
11:14 28.6 °C 23.9 °C 1012.8 hPa WSW 166.6 km/h 4 km/h 76% 6451015.8 mm 298.00 W/m2 OVC
11:19 28.6 °C 23.9 °C 1012.8 hPa WSW 166.6 km/h 4 km/h 76% 6451015.8 mm 298.00 W/m2 OVC
11:24 28.6 °C 23.9 °C 1012.8 hPa WSW 166.6 km/h 4 km/h 76% 6451015.8 mm 298.00 W/m2 OVC
11:29 28.6 °C 23.9 °C 1012.8 hPa WSW 166.6 km/h 4 km/h 76% 6451015.8 mm 298.00 W/m2 OVC
11:34 29.2 °C 24.1 °C 1012.8 hPa WSW 166.6 km/h 9.3 km/h 74% 6451015.8 mm 154.00 W/m2 OVC
11:39 29.2 °C 24.1 °C 1012.8 hPa WSW 166.6 km/h 9.3 km/h 74% 6451015.8 mm 154.00 W/m2 OVC
11:44 29.1 °C 24 °C 1012.8 hPa WSW 166.6 km/h 5.5 km/h 74% 6451015.8 mm 154.00 W/m2 OVC
11:49 29.1 °C 24 °C 1012.8 hPa WSW 166.6 km/h 3.2 km/h 74% 6451015.8 mm 285.00 W/m2 OVC
11:54 29.1 °C 24 °C 1012.8 hPa WSW 166.6 km/h 3.2 km/h 74% 6451015.8 mm 285.00 W/m2 OVC
11:59 29.1 °C 24 °C 1012.8 hPa WSW 166.6 km/h 5.5 km/h 74% 6451015.8 mm 154.00 W/m2 OVC
12:04 29.1 °C 24 °C 1012.8 hPa WSW 166.6 km/h 5.5 km/h 74% 6451015.8 mm 154.00 W/m2 OVC
12:09 29.1 °C 24 °C 1012.8 hPa WSW 166.6 km/h 3.2 km/h 74% 6451015.8 mm 285.00 W/m2 OVC
12:14 29.1 °C 24 °C 1012.8 hPa WSW 166.6 km/h 3.2 km/h 74% 6451015.8 mm 285.00 W/m2 OVC
12:19 29.1 °C 24 °C 1012.8 hPa WSW 166.6 km/h 5.5 km/h 74% 6451015.8 mm 154.00 W/m2 OVC
12:24 29.1 °C 24 °C 1012.8 hPa WSW 166.6 km/h 3.2 km/h 74% 6451015.8 mm 285.00 W/m2 OVC
12:29 29.1 °C 24 °C 1012.8 hPa WSW 166.6 km/h 3.2 km/h 74% 6451015.8 mm 285.00 W/m2 OVC
12:34 29.9 °C 23.1 °C 1012.8 hPa WSW 166.6 km/h   67% 6451015.8 mm 140.00 W/m2 OVC
12:39 29.9 °C 23.1 °C 1012.8 hPa WSW 166.6 km/h   67% 6451015.8 mm 140.00 W/m2 OVC
12:44 29.9 °C 23.1 °C 1012.8 hPa WSW 166.6 km/h   67% 6451015.8 mm 140.00 W/m2 OVC
12:49 29.9 °C 23.1 °C 1012.8 hPa WSW 166.6 km/h   67% 6451015.8 mm 140.00 W/m2 OVC
12:54 29.9 °C 23.1 °C 1012.8 hPa WSW 166.6 km/h   67% 6451015.8 mm 140.00 W/m2 OVC
12:59 29.1 °C 24 °C 1012.8 hPa WSW 166.6 km/h 4.7 km/h 74% 6451015.8 mm 323.00 W/m2 OVC
13:04 29.1 °C 24 °C 1012.8 hPa WSW 166.6 km/h 4.7 km/h 74% 6451015.8 mm 323.00 W/m2 OVC
13:09 29.1 °C 24 °C 1012.8 hPa WSW 166.6 km/h 4.7 km/h 74% 6451015.8 mm 323.00 W/m2 OVC
13:14 30.7 °C 24.1 °C 1012.8 hPa WSW 166.6 km/h   68% 6451015.8 mm 179.00 W/m2 OVC
13:19 30.7 °C 24.1 °C 1012.8 hPa WSW 166.6 km/h   68% 6451015.8 mm 179.00 W/m2 OVC
13:24 30.7 °C 24.1 °C 1012.8 hPa WSW 166.6 km/h   68% 6451015.8 mm 179.00 W/m2 OVC
13:29 30.7 °C 24.1 °C 1012.8 hPa WSW 166.6 km/h   68% 6451015.8 mm 179.00 W/m2 OVC
13:34 30.7 °C 24.1 °C 1012.8 hPa WSW 166.6 km/h   68% 6451015.8 mm 179.00 W/m2 OVC
13:39 30.7 °C 24.1 °C 1012.8 hPa WSW 166.6 km/h   68% 6451015.8 mm 179.00 W/m2 OVC
13:44 30.7 °C 24.1 °C 1012.8 hPa WSW 166.6 km/h   68% 6451015.8 mm 179.00 W/m2 OVC
13:49 30.6 °C 24 °C 1012.8 hPa WSW 166.6 km/h 1.4 km/h 68% 6451015.8 mm 88.00 W/m2 OVC
13:54 30.7 °C 24.1 °C 1012.8 hPa WSW 166.6 km/h 2.1 km/h 68% 6451015.8 mm 3.00 W/m2 CLR
13:59 30.7 °C 24.1 °C 1012.8 hPa WSW 166.6 km/h 2.1 km/h 68% 6451015.8 mm 7.00 W/m2 SCT
14:04 30.7 °C 24.1 °C 1011.7 hPa WSW 166.6 km/h 1.4 km/h 68% 6451015.8 mm 18.00 W/m2 FEW
PIMOHWEATHER Philippines
Compliments of Weather Underground - 2 mb
www.000webhost.com